sensor_id;sensor_type;location;lat;lon;timestamp;P1;durP1;ratioP1;P2;durP2;ratioP2
34896;SDS011;43407;51.828;-2.298;2023-03-23T00:02:24;6.43;;;1.25;;
34896;SDS011;43407;51.828;-2.298;2023-03-23T00:04:53;5.93;;;1.40;;
34896;SDS011;43407;51.828;-2.298;2023-03-23T00:07:22;8.43;;;1.42;;
34896;SDS011;43407;51.828;-2.298;2023-03-23T00:09:48;7.47;;;1.60;;
34896;SDS011;43407;51.828;-2.298;2023-03-23T00:12:26;6.25;;;1.30;;
34896;SDS011;43407;51.828;-2.298;2023-03-23T00:15:02;4.22;;;1.50;;
34896;SDS011;43407;51.828;-2.298;2023-03-23T00:17:30;7.53;;;1.60;;
34896;SDS011;43407;51.828;-2.298;2023-03-23T00:19:58;5.05;;;1.25;;
34896;SDS011;43407;51.828;-2.298;2023-03-23T00:22:26;4.30;;;1.10;;
34896;SDS011;43407;51.828;-2.298;2023-03-23T00:24:52;7.88;;;1.60;;
34896;SDS011;43407;51.828;-2.298;2023-03-23T00:27:18;10.05;;;1.45;;
34896;SDS011;43407;51.828;-2.298;2023-03-23T00:29:47;10.50;;;1.55;;
34896;SDS011;43407;51.828;-2.298;2023-03-23T00:32:19;7.43;;;1.67;;
34896;SDS011;43407;51.828;-2.298;2023-03-23T00:34:46;5.60;;;1.45;;
34896;SDS011;43407;51.828;-2.298;2023-03-23T00:37:13;11.65;;;2.05;;
34896;SDS011;43407;51.828;-2.298;2023-03-23T00:39:41;9.50;;;1.70;;
34896;SDS011;43407;51.828;-2.298;2023-03-23T00:42:09;11.32;;;2.00;;
34896;SDS011;43407;51.828;-2.298;2023-03-23T00:44:35;8.40;;;1.73;;
34896;SDS011;43407;51.828;-2.298;2023-03-23T00:47:01;10.95;;;1.95;;
34896;SDS011;43407;51.828;-2.298;2023-03-23T00:49:27;9.95;;;2.30;;
34896;SDS011;43407;51.828;-2.298;2023-03-23T00:51:54;12.35;;;2.30;;
34896;SDS011;43407;51.828;-2.298;2023-03-23T00:54:21;15.18;;;2.55;;
34896;SDS011;43407;51.828;-2.298;2023-03-23T00:56:47;8.85;;;2.15;;
34896;SDS011;43407;51.828;-2.298;2023-03-23T00:59:12;16.38;;;3.10;;
34896;SDS011;43407;51.828;-2.298;2023-03-23T01:01:38;19.38;;;2.85;;
34896;SDS011;43407;51.828;-2.298;2023-03-23T01:04:04;9.80;;;2.58;;
34896;SDS011;43407;51.828;-2.298;2023-03-23T01:06:31;12.65;;;2.45;;
34896;SDS011;43407;51.828;-2.298;2023-03-23T01:09:00;11.85;;;2.53;;
34896;SDS011;43407;51.828;-2.298;2023-03-23T01:11:26;11.70;;;2.53;;
34896;SDS011;43407;51.828;-2.298;2023-03-23T01:13:51;8.65;;;1.88;;
34896;SDS011;43407;51.828;-2.298;2023-03-23T01:16:17;14.85;;;2.30;;
34896;SDS011;43407;51.828;-2.298;2023-03-23T01:18:43;15.98;;;3.50;;
34896;SDS011;43407;51.828;-2.298;2023-03-23T01:21:09;16.65;;;2.55;;
34896;SDS011;43407;51.828;-2.298;2023-03-23T01:23:36;14.60;;;2.80;;
34896;SDS011;43407;51.828;-2.298;2023-03-23T01:26:03;13.77;;;2.65;;
34896;SDS011;43407;51.828;-2.298;2023-03-23T01:28:40;13.70;;;2.85;;
34896;SDS011;43407;51.828;-2.298;2023-03-23T01:31:06;19.63;;;3.08;;
34896;SDS011;43407;51.828;-2.298;2023-03-23T01:33:33;16.83;;;2.92;;
34896;SDS011;43407;51.828;-2.298;2023-03-23T01:36:03;17.55;;;2.60;;
34896;SDS011;43407;51.828;-2.298;2023-03-23T01:38:30;11.70;;;2.80;;
34896;SDS011;43407;51.828;-2.298;2023-03-23T01:40:56;13.52;;;2.50;;
34896;SDS011;43407;51.828;-2.298;2023-03-23T01:43:21;14.57;;;3.15;;
34896;SDS011;43407;51.828;-2.298;2023-03-23T01:45:47;16.63;;;3.00;;
34896;SDS011;43407;51.828;-2.298;2023-03-23T01:48:14;18.50;;;3.60;;
34896;SDS011;43407;51.828;-2.298;2023-03-23T01:53:40;23.55;;;3.70;;
34896;SDS011;43407;51.828;-2.298;2023-03-23T01:56:09;20.55;;;4.10;;
34896;SDS011;43407;51.828;-2.298;2023-03-23T01:58:36;23.13;;;3.70;;
34896;SDS011;43407;51.828;-2.298;2023-03-23T02:01:04;18.85;;;3.63;;
34896;SDS011;43407;51.828;-2.298;2023-03-23T02:03:32;20.25;;;3.63;;
34896;SDS011;43407;51.828;-2.298;2023-03-23T02:06:00;19.63;;;3.33;;
34896;SDS011;43407;51.828;-2.298;2023-03-23T02:08:26;17.65;;;3.53;;
34896;SDS011;43407;51.828;-2.298;2023-03-23T02:10:53;18.42;;;3.50;;
34896;SDS011;43407;51.828;-2.298;2023-03-23T02:13:18;15.50;;;3.35;;
34896;SDS011;43407;51.828;-2.298;2023-03-23T02:15:45;18.75;;;3.75;;
34896;SDS011;43407;51.828;-2.298;2023-03-23T02:18:21;19.95;;;3.13;;
34896;SDS011;43407;51.828;-2.298;2023-03-23T02:35:11;17.23;;;2.95;;
34896;SDS011;43407;51.828;-2.298;2023-03-23T02:38:42;16.80;;;3.35;;
34896;SDS011;43407;51.828;-2.298;2023-03-23T02:40:41;16.98;;;3.13;;
34896;SDS011;43407;51.828;-2.298;2023-03-23T02:43:09;15.77;;;3.15;;
34896;SDS011;43407;51.828;-2.298;2023-03-23T02:45:37;23.27;;;3.75;;
34896;SDS011;43407;51.828;-2.298;2023-03-23T02:48:04;15.55;;;2.90;;
34896;SDS011;43407;51.828;-2.298;2023-03-23T02:50:30;19.65;;;2.88;;
34896;SDS011;43407;51.828;-2.298;2023-03-23T02:52:56;15.95;;;3.40;;
34896;SDS011;43407;51.828;-2.298;2023-03-23T02:55:23;13.80;;;3.20;;
34896;SDS011;43407;51.828;-2.298;2023-03-23T02:57:50;22.38;;;3.47;;
34896;SDS011;43407;51.828;-2.298;2023-03-23T03:00:17;15.65;;;2.97;;
34896;SDS011;43407;51.828;-2.298;2023-03-23T03:02:44;20.25;;;3.55;;
34896;SDS011;43407;51.828;-2.298;2023-03-23T03:10:29;14.95;;;2.92;;
34896;SDS011;43407;51.828;-2.298;2023-03-23T03:19:12;17.95;;;3.05;;
34896;SDS011;43407;51.828;-2.298;2023-03-23T03:21:43;18.73;;;3.20;;
34896;SDS011;43407;51.828;-2.298;2023-03-23T03:24:10;14.45;;;2.83;;
34896;SDS011;43407;51.828;-2.298;2023-03-23T03:26:37;11.32;;;3.00;;
34896;SDS011;43407;51.828;-2.298;2023-03-23T03:29:06;14.00;;;2.78;;
34896;SDS011;43407;51.828;-2.298;2023-03-23T03:31:33;15.98;;;3.22;;
34896;SDS011;43407;51.828;-2.298;2023-03-23T03:34:02;11.20;;;2.13;;
34896;SDS011;43407;51.828;-2.298;2023-03-23T03:36:28;13.35;;;2.72;;
34896;SDS011;43407;51.828;-2.298;2023-03-23T03:39:00;17.65;;;2.70;;
34896;SDS011;43407;51.828;-2.298;2023-03-23T03:41:33;14.13;;;2.63;;
34896;SDS011;43407;51.828;-2.298;2023-03-23T03:44:02;12.80;;;2.58;;
34896;SDS011;43407;51.828;-2.298;2023-03-23T03:46:28;18.30;;;2.95;;
34896;SDS011;43407;51.828;-2.298;2023-03-23T03:48:56;14.20;;;2.72;;
34896;SDS011;43407;51.828;-2.298;2023-03-23T03:51:22;11.88;;;2.55;;
34896;SDS011;43407;51.828;-2.298;2023-03-23T03:53:48;14.43;;;3.20;;
34896;SDS011;43407;51.828;-2.298;2023-03-23T03:56:14;12.18;;;2.67;;
34896;SDS011;43407;51.828;-2.298;2023-03-23T03:58:39;14.63;;;2.47;;
34896;SDS011;43407;51.828;-2.298;2023-03-23T04:01:07;16.95;;;2.58;;
34896;SDS011;43407;51.828;-2.298;2023-03-23T04:03:35;13.38;;;2.55;;
34896;SDS011;43407;51.828;-2.298;2023-03-23T04:06:01;11.57;;;2.33;;
34896;SDS011;43407;51.828;-2.298;2023-03-23T04:08:27;16.08;;;3.17;;
34896;SDS011;43407;51.828;-2.298;2023-03-23T04:10:53;14.07;;;2.95;;
34896;SDS011;43407;51.828;-2.298;2023-03-23T04:13:19;16.48;;;2.78;;
34896;SDS011;43407;51.828;-2.298;2023-03-23T04:15:45;15.40;;;3.15;;
34896;SDS011;43407;51.828;-2.298;2023-03-23T04:18:11;15.13;;;2.75;;
34896;SDS011;43407;51.828;-2.298;2023-03-23T04:20:37;17.60;;;3.30;;
34896;SDS011;43407;51.828;-2.298;2023-03-23T04:23:03;16.90;;;3.20;;
34896;SDS011;43407;51.828;-2.298;2023-03-23T04:25:28;11.05;;;2.53;;
34896;SDS011;43407;51.828;-2.298;2023-03-23T04:27:57;11.02;;;2.88;;
34896;SDS011;43407;51.828;-2.298;2023-03-23T04:30:26;17.13;;;3.45;;
34896;SDS011;43407;51.828;-2.298;2023-03-23T04:32:52;13.50;;;2.70;;
34896;SDS011;43407;51.828;-2.298;2023-03-23T04:35:21;11.18;;;3.40;;
34896;SDS011;43407;51.828;-2.298;2023-03-23T04:37:50;17.17;;;2.97;;
34896;SDS011;43407;51.828;-2.298;2023-03-23T04:40:16;14.40;;;3.38;;
34896;SDS011;43407;51.828;-2.298;2023-03-23T04:42:42;17.05;;;2.95;;
34896;SDS011;43407;51.828;-2.298;2023-03-23T04:45:12;14.95;;;2.80;;
34896;SDS011;43407;51.828;-2.298;2023-03-23T04:47:40;18.65;;;3.30;;
34896;SDS011;43407;51.828;-2.298;2023-03-23T04:50:07;15.65;;;2.75;;
34896;SDS011;43407;51.828;-2.298;2023-03-23T04:52:33;15.70;;;3.38;;
34896;SDS011;43407;51.828;-2.298;2023-03-23T04:54:59;15.07;;;3.65;;
34896;SDS011;43407;51.828;-2.298;2023-03-23T04:57:25;15.70;;;2.85;;
34896;SDS011;43407;51.828;-2.298;2023-03-23T04:59:53;12.00;;;2.55;;
34896;SDS011;43407;51.828;-2.298;2023-03-23T05:02:19;16.15;;;3.40;;
34896;SDS011;43407;51.828;-2.298;2023-03-23T05:04:44;13.75;;;3.53;;
34896;SDS011;43407;51.828;-2.298;2023-03-23T05:07:10;13.75;;;2.70;;
34896;SDS011;43407;51.828;-2.298;2023-03-23T05:09:36;14.32;;;2.92;;
34896;SDS011;43407;51.828;-2.298;2023-03-23T05:12:03;9.90;;;2.30;;
34896;SDS011;43407;51.828;-2.298;2023-03-23T05:14:31;14.30;;;2.92;;
34896;SDS011;43407;51.828;-2.298;2023-03-23T05:16:56;18.77;;;3.70;;
34896;SDS011;43407;51.828;-2.298;2023-03-23T05:19:22;11.65;;;2.65;;
34896;SDS011;43407;51.828;-2.298;2023-03-23T05:21:47;14.13;;;2.58;;
34896;SDS011;43407;51.828;-2.298;2023-03-23T05:24:13;12.93;;;3.17;;
34896;SDS011;43407;51.828;-2.298;2023-03-23T05:26:38;13.48;;;2.42;;
34896;SDS011;43407;51.828;-2.298;2023-03-23T05:29:04;15.15;;;2.85;;
34896;SDS011;43407;51.828;-2.298;2023-03-23T05:31:29;15.68;;;3.00;;
34896;SDS011;43407;51.828;-2.298;2023-03-23T05:33:55;11.95;;;2.83;;
34896;SDS011;43407;51.828;-2.298;2023-03-23T05:36:21;15.50;;;3.25;;
34896;SDS011;43407;51.828;-2.298;2023-03-23T05:38:48;16.55;;;3.13;;
34896;SDS011;43407;51.828;-2.298;2023-03-23T05:41:15;11.77;;;2.63;;
34896;SDS011;43407;51.828;-2.298;2023-03-23T05:43:41;14.88;;;2.97;;
34896;SDS011;43407;51.828;-2.298;2023-03-23T05:46:06;12.90;;;2.78;;
34896;SDS011;43407;51.828;-2.298;2023-03-23T05:48:32;15.57;;;3.05;;
34896;SDS011;43407;51.828;-2.298;2023-03-23T05:50:58;18.38;;;3.28;;
34896;SDS011;43407;51.828;-2.298;2023-03-23T05:53:24;12.48;;;3.47;;
34896;SDS011;43407;51.828;-2.298;2023-03-23T05:55:50;19.67;;;3.42;;
34896;SDS011;43407;51.828;-2.298;2023-03-23T05:58:16;15.25;;;3.30;;
34896;SDS011;43407;51.828;-2.298;2023-03-23T06:00:42;20.98;;;3.40;;
34896;SDS011;43407;51.828;-2.298;2023-03-23T06:03:07;20.95;;;3.63;;
34896;SDS011;43407;51.828;-2.298;2023-03-23T06:05:33;21.50;;;3.60;;
34896;SDS011;43407;51.828;-2.298;2023-03-23T06:07:59;19.67;;;3.15;;
34896;SDS011;43407;51.828;-2.298;2023-03-23T06:10:25;14.50;;;2.88;;
34896;SDS011;43407;51.828;-2.298;2023-03-23T06:12:51;17.38;;;3.20;;
34896;SDS011;43407;51.828;-2.298;2023-03-23T06:15:17;10.27;;;2.58;;
34896;SDS011;43407;51.828;-2.298;2023-03-23T06:17:43;16.38;;;3.10;;
34896;SDS011;43407;51.828;-2.298;2023-03-23T06:20:09;15.75;;;3.55;;
34896;SDS011;43407;51.828;-2.298;2023-03-23T06:22:36;17.45;;;3.17;;
34896;SDS011;43407;51.828;-2.298;2023-03-23T06:25:03;14.80;;;3.13;;
34896;SDS011;43407;51.828;-2.298;2023-03-23T06:27:30;9.95;;;2.67;;
34896;SDS011;43407;51.828;-2.298;2023-03-23T06:29:55;12.77;;;2.58;;
34896;SDS011;43407;51.828;-2.298;2023-03-23T06:32:21;22.13;;;3.92;;
34896;SDS011;43407;51.828;-2.298;2023-03-23T06:34:47;14.52;;;3.05;;
34896;SDS011;43407;51.828;-2.298;2023-03-23T06:37:13;18.88;;;3.90;;
34896;SDS011;43407;51.828;-2.298;2023-03-23T06:39:39;23.08;;;3.67;;
34896;SDS011;43407;51.828;-2.298;2023-03-23T06:42:04;16.65;;;3.35;;
34896;SDS011;43407;51.828;-2.298;2023-03-23T06:44:30;19.92;;;3.25;;
34896;SDS011;43407;51.828;-2.298;2023-03-23T06:46:55;19.48;;;3.58;;
34896;SDS011;43407;51.828;-2.298;2023-03-23T06:49:21;15.80;;;3.40;;
34896;SDS011;43407;51.828;-2.298;2023-03-23T06:51:47;19.65;;;3.78;;
34896;SDS011;43407;51.828;-2.298;2023-03-23T06:54:13;19.90;;;4.35;;
34896;SDS011;43407;51.828;-2.298;2023-03-23T06:56:38;24.40;;;3.72;;
34896;SDS011;43407;51.828;-2.298;2023-03-23T06:59:04;18.27;;;3.60;;
34896;SDS011;43407;51.828;-2.298;2023-03-23T07:01:30;20.25;;;4.07;;
34896;SDS011;43407;51.828;-2.298;2023-03-23T07:03:55;22.17;;;4.57;;
34896;SDS011;43407;51.828;-2.298;2023-03-23T07:06:21;23.90;;;4.60;;
34896;SDS011;43407;51.828;-2.298;2023-03-23T07:08:47;17.42;;;3.33;;
34896;SDS011;43407;51.828;-2.298;2023-03-23T07:11:12;22.08;;;3.90;;
34896;SDS011;43407;51.828;-2.298;2023-03-23T07:13:38;17.42;;;3.33;;
34896;SDS011;43407;51.828;-2.298;2023-03-23T07:16:07;26.50;;;4.22;;
34896;SDS011;43407;51.828;-2.298;2023-03-23T07:18:33;16.50;;;3.42;;
34896;SDS011;43407;51.828;-2.298;2023-03-23T07:20:59;24.17;;;4.97;;
34896;SDS011;43407;51.828;-2.298;2023-03-23T07:23:25;22.23;;;3.83;;
34896;SDS011;43407;51.828;-2.298;2023-03-23T07:25:51;18.13;;;3.75;;
34896;SDS011;43407;51.828;-2.298;2023-03-23T07:28:17;25.08;;;4.22;;
34896;SDS011;43407;51.828;-2.298;2023-03-23T07:30:43;25.13;;;4.15;;
34896;SDS011;43407;51.828;-2.298;2023-03-23T07:33:09;22.77;;;4.07;;
34896;SDS011;43407;51.828;-2.298;2023-03-23T07:35:35;27.10;;;4.45;;
34896;SDS011;43407;51.828;-2.298;2023-03-23T07:38:01;29.83;;;4.38;;
34896;SDS011;43407;51.828;-2.298;2023-03-23T07:40:28;27.33;;;5.10;;
34896;SDS011;43407;51.828;-2.298;2023-03-23T07:42:54;18.40;;;4.10;;
34896;SDS011;43407;51.828;-2.298;2023-03-23T07:45:21;29.98;;;4.55;;
34896;SDS011;43407;51.828;-2.298;2023-03-23T07:47:47;17.10;;;4.13;;
34896;SDS011;43407;51.828;-2.298;2023-03-23T07:50:13;22.90;;;5.13;;
34896;SDS011;43407;51.828;-2.298;2023-03-23T07:52:39;24.67;;;5.30;;
34896;SDS011;43407;51.828;-2.298;2023-03-23T07:55:06;23.00;;;4.45;;
34896;SDS011;43407;51.828;-2.298;2023-03-23T07:57:33;31.33;;;5.07;;
34896;SDS011;43407;51.828;-2.298;2023-03-23T07:59:59;20.30;;;4.35;;
34896;SDS011;43407;51.828;-2.298;2023-03-23T08:02:26;22.50;;;4.82;;
34896;SDS011;43407;51.828;-2.298;2023-03-23T08:04:52;20.48;;;4.18;;
34896;SDS011;43407;51.828;-2.298;2023-03-23T08:07:19;29.55;;;4.70;;
34896;SDS011;43407;51.828;-2.298;2023-03-23T08:09:45;16.50;;;3.78;;
34896;SDS011;43407;51.828;-2.298;2023-03-23T08:12:12;22.05;;;4.90;;
34896;SDS011;43407;51.828;-2.298;2023-03-23T08:14:38;19.35;;;4.35;;
34896;SDS011;43407;51.828;-2.298;2023-03-23T08:17:06;17.35;;;3.95;;
34896;SDS011;43407;51.828;-2.298;2023-03-23T08:19:34;17.73;;;3.70;;
34896;SDS011;43407;51.828;-2.298;2023-03-23T08:22:02;16.10;;;3.72;;
34896;SDS011;43407;51.828;-2.298;2023-03-23T08:24:29;21.20;;;4.15;;
34896;SDS011;43407;51.828;-2.298;2023-03-23T08:26:55;17.63;;;3.72;;
34896;SDS011;43407;51.828;-2.298;2023-03-23T08:29:21;20.50;;;3.70;;
34896;SDS011;43407;51.828;-2.298;2023-03-23T08:31:47;21.90;;;4.78;;
34896;SDS011;43407;51.828;-2.298;2023-03-23T08:34:12;20.45;;;4.22;;
34896;SDS011;43407;51.828;-2.298;2023-03-23T08:36:38;20.73;;;4.07;;
34896;SDS011;43407;51.828;-2.298;2023-03-23T08:39:04;15.18;;;3.88;;
34896;SDS011;43407;51.828;-2.298;2023-03-23T08:41:30;13.63;;;3.70;;
34896;SDS011;43407;51.828;-2.298;2023-03-23T08:43:56;18.90;;;3.53;;
34896;SDS011;43407;51.828;-2.298;2023-03-23T08:46:22;18.83;;;4.80;;
34896;SDS011;43407;51.828;-2.298;2023-03-23T08:48:48;15.82;;;3.70;;
34896;SDS011;43407;51.828;-2.298;2023-03-23T08:51:13;13.98;;;3.35;;
34896;SDS011;43407;51.828;-2.298;2023-03-23T08:53:39;18.02;;;3.90;;
34896;SDS011;43407;51.828;-2.298;2023-03-23T08:56:05;14.73;;;3.42;;
34896;SDS011;43407;51.828;-2.298;2023-03-23T08:58:33;16.27;;;4.32;;
34896;SDS011;43407;51.828;-2.298;2023-03-23T09:01:02;18.15;;;3.53;;
34896;SDS011;43407;51.828;-2.298;2023-03-23T09:03:28;20.75;;;4.40;;
34896;SDS011;43407;51.828;-2.298;2023-03-23T09:05:58;15.70;;;3.92;;
34896;SDS011;43407;51.828;-2.298;2023-03-23T09:08:25;15.98;;;3.50;;
34896;SDS011;43407;51.828;-2.298;2023-03-23T09:10:52;13.32;;;4.05;;
34896;SDS011;43407;51.828;-2.298;2023-03-23T09:13:18;19.88;;;4.10;;
34896;SDS011;43407;51.828;-2.298;2023-03-23T09:15:43;13.10;;;3.50;;
34896;SDS011;43407;51.828;-2.298;2023-03-23T09:18:09;17.00;;;4.10;;
34896;SDS011;43407;51.828;-2.298;2023-03-23T09:20:35;14.88;;;3.80;;
34896;SDS011;43407;51.828;-2.298;2023-03-23T09:23:02;17.45;;;4.05;;
34896;SDS011;43407;51.828;-2.298;2023-03-23T09:25:27;21.25;;;4.38;;
34896;SDS011;43407;51.828;-2.298;2023-03-23T09:27:54;14.63;;;3.78;;
34896;SDS011;43407;51.828;-2.298;2023-03-23T09:30:22;16.13;;;4.50;;
34896;SDS011;43407;51.828;-2.298;2023-03-23T09:32:51;18.77;;;4.30;;
34896;SDS011;43407;51.828;-2.298;2023-03-23T09:35:17;24.80;;;4.90;;
34896;SDS011;43407;51.828;-2.298;2023-03-23T09:37:46;19.60;;;4.50;;
34896;SDS011;43407;51.828;-2.298;2023-03-23T09:40:15;17.10;;;4.05;;
34896;SDS011;43407;51.828;-2.298;2023-03-23T09:45:16;21.30;;;4.28;;
34896;SDS011;43407;51.828;-2.298;2023-03-23T09:50:30;16.48;;;4.03;;
34896;SDS011;43407;51.828;-2.298;2023-03-23T09:55:53;20.05;;;3.95;;
34896;SDS011;43407;51.828;-2.298;2023-03-23T09:58:34;19.42;;;3.80;;
34896;SDS011;43407;51.828;-2.298;2023-03-23T10:01:17;17.15;;;3.95;;
34896;SDS011;43407;51.828;-2.298;2023-03-23T10:03:48;17.13;;;4.13;;
34896;SDS011;43407;51.828;-2.298;2023-03-23T10:06:17;15.25;;;3.58;;
34896;SDS011;43407;51.828;-2.298;2023-03-23T10:08:44;15.77;;;4.10;;
34896;SDS011;43407;51.828;-2.298;2023-03-23T10:16:18;20.15;;;4.07;;
34896;SDS011;43407;51.828;-2.298;2023-03-23T10:21:19;12.00;;;3.08;;
34896;SDS011;43407;51.828;-2.298;2023-03-23T10:31:40;13.02;;;3.30;;
34896;SDS011;43407;51.828;-2.298;2023-03-23T10:34:12;11.03;;;3.57;;
34896;SDS011;43407;51.828;-2.298;2023-03-23T10:39:55;17.15;;;3.92;;
34896;SDS011;43407;51.828;-2.298;2023-03-23T10:42:29;18.67;;;3.63;;
34896;SDS011;43407;51.828;-2.298;2023-03-23T10:44:57;13.93;;;4.07;;
34896;SDS011;43407;51.828;-2.298;2023-03-23T10:47:24;13.10;;;3.88;;
34896;SDS011;43407;51.828;-2.298;2023-03-23T10:49:51;15.63;;;3.35;;
34896;SDS011;43407;51.828;-2.298;2023-03-23T10:55:14;13.52;;;3.28;;
34896;SDS011;43407;51.828;-2.298;2023-03-23T10:57:45;12.63;;;3.53;;
34896;SDS011;43407;51.828;-2.298;2023-03-23T11:00:25;11.52;;;3.15;;
34896;SDS011;43407;51.828;-2.298;2023-03-23T11:03:17;13.73;;;3.00;;
34896;SDS011;43407;51.828;-2.298;2023-03-23T11:05:59;12.77;;;3.08;;
34896;SDS011;43407;51.828;-2.298;2023-03-23T11:08:29;8.93;;;2.50;;
34896;SDS011;43407;51.828;-2.298;2023-03-23T11:13:39;11.05;;;3.28;;
34896;SDS011;43407;51.828;-2.298;2023-03-23T11:16:08;18.88;;;3.63;;
34896;SDS011;43407;51.828;-2.298;2023-03-23T11:18:35;11.00;;;3.17;;
34896;SDS011;43407;51.828;-2.298;2023-03-23T11:21:05;18.02;;;3.38;;
34896;SDS011;43407;51.828;-2.298;2023-03-23T11:23:36;11.98;;;3.00;;
34896;SDS011;43407;51.828;-2.298;2023-03-23T11:29:20;10.55;;;3.00;;
34896;SDS011;43407;51.828;-2.298;2023-03-23T11:31:46;15.05;;;3.50;;
34896;SDS011;43407;51.828;-2.298;2023-03-23T11:37:00;17.73;;;3.88;;
34896;SDS011;43407;51.828;-2.298;2023-03-23T11:40:14;15.30;;;4.10;;
34896;SDS011;43407;51.828;-2.298;2023-03-23T11:42:49;14.25;;;3.72;;
34896;SDS011;43407;51.828;-2.298;2023-03-23T11:45:18;13.27;;;3.38;;
34896;SDS011;43407;51.828;-2.298;2023-03-23T11:50:33;16.17;;;3.90;;
34896;SDS011;43407;51.828;-2.298;2023-03-23T11:53:15;15.48;;;3.55;;
34896;SDS011;43407;51.828;-2.298;2023-03-23T11:56:04;9.80;;;3.15;;
34896;SDS011;43407;51.828;-2.298;2023-03-23T11:58:31;13.15;;;3.65;;
34896;SDS011;43407;51.828;-2.298;2023-03-23T12:00:59;11.73;;;3.33;;
34896;SDS011;43407;51.828;-2.298;2023-03-23T12:06:01;11.55;;;3.25;;
34896;SDS011;43407;51.828;-2.298;2023-03-23T12:08:33;14.38;;;3.20;;
34896;SDS011;43407;51.828;-2.298;2023-03-23T12:27:47;19.95;;;3.60;;
34896;SDS011;43407;51.828;-2.298;2023-03-23T12:36:18;13.98;;;3.55;;
34896;SDS011;43407;51.828;-2.298;2023-03-23T12:45:11;20.77;;;4.53;;
34896;SDS011;43407;51.828;-2.298;2023-03-23T12:52:32;15.02;;;3.17;;
34896;SDS011;43407;51.828;-2.298;2023-03-23T12:55:14;18.83;;;3.78;;
34896;SDS011;43407;51.828;-2.298;2023-03-23T12:57:49;13.80;;;3.45;;
34896;SDS011;43407;51.828;-2.298;2023-03-23T13:00:33;12.60;;;3.65;;
34896;SDS011;43407;51.828;-2.298;2023-03-23T13:03:21;13.00;;;3.38;;
34896;SDS011;43407;51.828;-2.298;2023-03-23T13:06:05;9.05;;;2.83;;
34896;SDS011;43407;51.828;-2.298;2023-03-23T13:08:55;14.88;;;3.58;;
34896;SDS011;43407;51.828;-2.298;2023-03-23T13:11:35;11.30;;;3.13;;
34896;SDS011;43407;51.828;-2.298;2023-03-23T13:16:31;12.70;;;3.50;;
34896;SDS011;43407;51.828;-2.298;2023-03-23T13:19:04;13.48;;;3.65;;
34896;SDS011;43407;51.828;-2.298;2023-03-23T13:24:57;22.58;;;4.00;;
34896;SDS011;43407;51.828;-2.298;2023-03-23T13:27:25;18.10;;;3.80;;
34896;SDS011;43407;51.828;-2.298;2023-03-23T13:29:53;19.98;;;3.80;;
34896;SDS011;43407;51.828;-2.298;2023-03-23T13:32:20;17.75;;;4.55;;
34896;SDS011;43407;51.828;-2.298;2023-03-23T13:34:47;14.60;;;4.03;;
34896;SDS011;43407;51.828;-2.298;2023-03-23T13:39:51;19.80;;;3.95;;
34896;SDS011;43407;51.828;-2.298;2023-03-23T13:42:25;15.85;;;4.20;;
34896;SDS011;43407;51.828;-2.298;2023-03-23T13:49:59;18.73;;;4.22;;
34896;SDS011;43407;51.828;-2.298;2023-03-23T14:05:40;21.60;;;4.85;;
34896;SDS011;43407;51.828;-2.298;2023-03-23T14:11:19;21.23;;;4.95;;
34896;SDS011;43407;51.828;-2.298;2023-03-23T14:18:25;16.58;;;4.78;;
34896;SDS011;43407;51.828;-2.298;2023-03-23T14:20:56;17.33;;;4.13;;
34896;SDS011;43407;51.828;-2.298;2023-03-23T14:23:23;19.60;;;4.53;;
34896;SDS011;43407;51.828;-2.298;2023-03-23T14:25:55;18.77;;;4.32;;
34896;SDS011;43407;51.828;-2.298;2023-03-23T14:28:30;14.70;;;4.40;;
34896;SDS011;43407;51.828;-2.298;2023-03-23T14:30:57;19.85;;;4.75;;
34896;SDS011;43407;51.828;-2.298;2023-03-23T14:33:24;20.63;;;4.90;;
34896;SDS011;43407;51.828;-2.298;2023-03-23T14:35:50;23.65;;;4.50;;
34896;SDS011;43407;51.828;-2.298;2023-03-23T14:38:18;19.42;;;5.20;;
34896;SDS011;43407;51.828;-2.298;2023-03-23T14:40:45;17.63;;;3.80;;
34896;SDS011;43407;51.828;-2.298;2023-03-23T14:43:13;16.63;;;3.78;;
34896;SDS011;43407;51.828;-2.298;2023-03-23T14:45:42;13.07;;;3.35;;
34896;SDS011;43407;51.828;-2.298;2023-03-23T14:48:10;13.23;;;3.80;;
34896;SDS011;43407;51.828;-2.298;2023-03-23T14:50:39;14.68;;;3.47;;
34896;SDS011;43407;51.828;-2.298;2023-03-23T14:53:13;20.02;;;4.38;;
34896;SDS011;43407;51.828;-2.298;2023-03-23T14:55:54;19.08;;;4.50;;
34896;SDS011;43407;51.828;-2.298;2023-03-23T14:58:22;20.20;;;4.50;;
34896;SDS011;43407;51.828;-2.298;2023-03-23T15:01:02;17.50;;;4.25;;
34896;SDS011;43407;51.828;-2.298;2023-03-23T15:03:42;17.00;;;4.00;;
34896;SDS011;43407;51.828;-2.298;2023-03-23T15:06:12;18.70;;;4.05;;
34896;SDS011;43407;51.828;-2.298;2023-03-23T15:08:39;17.70;;;4.10;;
34896;SDS011;43407;51.828;-2.298;2023-03-23T15:11:13;17.00;;;3.97;;
34896;SDS011;43407;51.828;-2.298;2023-03-23T15:13:46;15.48;;;3.95;;
34896;SDS011;43407;51.828;-2.298;2023-03-23T15:16:26;17.98;;;4.47;;
34896;SDS011;43407;51.828;-2.298;2023-03-23T15:18:57;16.00;;;3.95;;
34896;SDS011;43407;51.828;-2.298;2023-03-23T15:21:28;11.35;;;3.00;;
34896;SDS011;43407;51.828;-2.298;2023-03-23T15:23:55;14.20;;;3.40;;
34896;SDS011;43407;51.828;-2.298;2023-03-23T15:26:24;12.50;;;3.08;;
34896;SDS011;43407;51.828;-2.298;2023-03-23T15:28:50;13.13;;;3.17;;
34896;SDS011;43407;51.828;-2.298;2023-03-23T15:31:15;10.02;;;2.90;;
34896;SDS011;43407;51.828;-2.298;2023-03-23T15:33:41;11.13;;;3.13;;
34896;SDS011;43407;51.828;-2.298;2023-03-23T15:36:08;11.98;;;3.33;;
34896;SDS011;43407;51.828;-2.298;2023-03-23T15:38:42;15.77;;;3.80;;
34896;SDS011;43407;51.828;-2.298;2023-03-23T15:41:24;18.23;;;3.47;;
34896;SDS011;43407;51.828;-2.298;2023-03-23T15:43:55;16.30;;;3.60;;
34896;SDS011;43407;51.828;-2.298;2023-03-23T15:46:24;13.55;;;3.80;;
34896;SDS011;43407;51.828;-2.298;2023-03-23T15:51:22;15.57;;;4.28;;
34896;SDS011;43407;51.828;-2.298;2023-03-23T15:53:50;16.52;;;3.58;;
34896;SDS011;43407;51.828;-2.298;2023-03-23T15:56:16;17.48;;;3.78;;
34896;SDS011;43407;51.828;-2.298;2023-03-23T15:58:44;12.48;;;3.75;;
34896;SDS011;43407;51.828;-2.298;2023-03-23T16:03:41;14.15;;;3.75;;
34896;SDS011;43407;51.828;-2.298;2023-03-23T16:06:15;17.05;;;3.85;;
34896;SDS011;43407;51.828;-2.298;2023-03-23T16:08:42;18.50;;;3.65;;
34896;SDS011;43407;51.828;-2.298;2023-03-23T16:11:09;16.25;;;3.85;;
34896;SDS011;43407;51.828;-2.298;2023-03-23T16:13:35;15.30;;;3.90;;
34896;SDS011;43407;51.828;-2.298;2023-03-23T16:16:01;12.18;;;3.20;;
34896;SDS011;43407;51.828;-2.298;2023-03-23T16:18:27;11.82;;;2.80;;
34896;SDS011;43407;51.828;-2.298;2023-03-23T16:20:53;12.73;;;3.42;;
34896;SDS011;43407;51.828;-2.298;2023-03-23T16:23:18;17.67;;;3.97;;
34896;SDS011;43407;51.828;-2.298;2023-03-23T16:25:44;11.02;;;2.95;;
34896;SDS011;43407;51.828;-2.298;2023-03-23T16:28:13;12.48;;;3.42;;
34896;SDS011;43407;51.828;-2.298;2023-03-23T16:30:39;12.27;;;3.33;;
34896;SDS011;43407;51.828;-2.298;2023-03-23T16:33:06;12.02;;;2.97;;
34896;SDS011;43407;51.828;-2.298;2023-03-23T16:35:31;11.02;;;3.13;;
34896;SDS011;43407;51.828;-2.298;2023-03-23T16:37:57;11.10;;;2.72;;
34896;SDS011;43407;51.828;-2.298;2023-03-23T16:40:23;8.75;;;2.72;;
34896;SDS011;43407;51.828;-2.298;2023-03-23T16:42:49;11.68;;;3.05;;
34896;SDS011;43407;51.828;-2.298;2023-03-23T16:45:15;11.77;;;3.08;;
34896;SDS011;43407;51.828;-2.298;2023-03-23T16:47:42;8.20;;;2.72;;
34896;SDS011;43407;51.828;-2.298;2023-03-23T16:50:09;7.53;;;2.58;;
34896;SDS011;43407;51.828;-2.298;2023-03-23T16:52:37;6.70;;;2.50;;
34896;SDS011;43407;51.828;-2.298;2023-03-23T16:55:04;6.95;;;2.03;;
34896;SDS011;43407;51.828;-2.298;2023-03-23T16:57:30;7.35;;;2.05;;